Time;durP1;ratioP1;P1;durP2;ratioP2;P2;SDS_P1;SDS_P2;PMS_P1;PMS_P2;Temp;Humidity;BMP_temperature;BMP_pressure;BME280_temperature;BME280_humidity;BME280_pressure;Samples;Min_cycle;Max_cycle;Signal;HPM_P1;HPM_P2
2023/01/18 00:01:56;;;;;;;12.00;3.03;;;0.70;99.90;;;;;;5031269;28;20116;-74
2023/01/18 00:04:22;;;;;;;6.90;3.05;;;-0.40;99.90;;;;;;5023001;28;20200;-74
2023/01/18 00:06:48;;;;;;;9.02;3.25;;;-0.40;99.90;;;;;;5040922;28;20048;-74
2023/01/18 00:09:14;;;;;;;8.18;3.20;;;-0.40;99.90;;;;;;5017999;28;20099;-74
2023/01/18 00:11:39;;;;;;;6.63;2.90;;;-0.40;99.90;;;;;;5038836;28;20162;-74
2023/01/18 00:14:06;;;;;;;15.23;3.88;;;-0.40;99.90;;;;;;5041103;28;20502;-74
2023/01/18 00:16:32;;;;;;;14.80;3.53;;;-0.40;99.90;;;;;;5040882;28;20044;-74
2023/01/18 00:18:58;;;;;;;7.43;3.53;;;-0.40;99.90;;;;;;5040984;28;20053;-74
2023/01/18 00:21:26;;;;;;;8.95;3.35;;;-0.20;99.90;;;;;;5024558;28;20052;-74
2023/01/18 00:23:56;;;;;;;7.03;2.85;;;-0.30;99.90;;;;;;5038725;28;20041;-74
2023/01/18 00:26:21;;;;;;;9.13;3.20;;;-0.50;99.90;;;;;;5042423;28;20498;-74
2023/01/18 00:28:47;;;;;;;7.53;3.08;;;-0.50;99.90;;;;;;5040566;28;20106;-74
2023/01/18 00:31:16;;;;;;;7.88;3.25;;;-0.50;99.90;;;;;;5035559;28;20091;-75
2023/01/18 00:33:44;;;;;;;10.15;3.00;;;-0.50;99.90;;;;;;5037499;28;20045;-74
2023/01/18 00:36:10;;;;;;;6.80;3.03;;;-0.50;99.90;;;;;;5023058;28;20084;-74
2023/01/18 00:38:36;;;;;;;9.57;3.53;;;-0.50;99.90;;;;;;5032649;28;20090;-74
2023/01/18 00:41:02;;;;;;;9.98;3.83;;;-0.50;99.90;;;;;;5038601;28;20044;-74
2023/01/18 00:43:40;;;;;;;9.48;3.75;;;-0.50;99.90;;;;;;5038370;28;20046;-73
2023/01/18 00:46:11;;;;;;;8.95;3.58;;;0.20;99.90;;;;;;5032858;28;20465;-74
2023/01/18 00:48:38;;;;;;;9.15;3.30;;;-0.50;99.90;;;;;;5025304;28;20057;-73
2023/01/18 00:51:04;;;;;;;8.10;3.00;;;-0.30;99.90;;;;;;5038622;28;20041;-73
2023/01/18 00:53:30;;;;;;;7.83;3.30;;;-0.50;99.90;;;;;;5035397;28;20132;-73
2023/01/18 00:55:56;;;;;;;7.50;3.20;;;-0.60;99.90;;;;;;5042901;28;20124;-74
2023/01/18 00:58:22;;;;;;;8.25;3.20;;;-0.60;99.90;;;;;;5038847;28;20040;-73
2023/01/18 01:00:50;;;;;;;7.30;3.33;;;-0.50;99.90;;;;;;5037372;28;20053;-73
2023/01/18 01:03:16;;;;;;;7.15;3.28;;;-0.60;99.90;;;;;;5033155;28;20045;-73
2023/01/18 01:08:26;;;;;;;7.93;3.30;;;-0.60;99.90;;;;;;5030284;28;20045;-73
2023/01/18 01:11:03;;;;;;;5.75;3.03;;;-0.60;99.90;;;;;;5043055;28;20041;-74
2023/01/18 01:27:11;;;;;;;10.02;3.28;;;-0.60;99.90;;;;;;5058154;28;20133;-73
2023/01/18 01:29:38;;;;;;;8.35;2.83;;;-0.60;99.90;;;;;;5021814;28;20466;-74
2023/01/18 01:32:05;;;;;;;8.85;3.15;;;-0.60;99.90;;;;;;5040298;28;20044;-74
2023/01/18 01:34:31;;;;;;;7.55;2.90;;;-0.60;99.90;;;;;;5038788;28;20047;-73
2023/01/18 01:36:57;;;;;;;8.32;3.13;;;0.30;99.90;;;;;;5054765;28;20639;-74
2023/01/18 01:39:23;;;;;;;8.23;3.03;;;-0.60;99.90;;;;;;5051840;28;20052;-73
2023/01/18 01:41:49;;;;;;;7.20;2.95;;;-0.70;99.90;;;;;;5049300;28;20045;-72
2023/01/18 01:44:20;;;;;;;8.27;3.00;;;-0.10;99.90;;;;;;5044200;28;20056;-73
2023/01/18 01:47:05;;;;;;;8.13;3.30;;;-0.70;99.90;;;;;;5054042;28;20040;-73
2023/01/18 01:49:39;;;;;;;7.97;3.30;;;-0.70;99.90;;;;;;5059505;28;20040;-74
2023/01/18 01:52:08;;;;;;;7.43;3.15;;;-0.70;99.90;;;;;;5037560;28;20101;-73
2023/01/18 01:54:42;;;;;;;9.07;3.72;;;-0.30;99.90;;;;;;5041324;28;20098;-74
2023/01/18 01:57:35;;;;;;;8.38;3.30;;;-0.70;99.90;;;;;;5039194;28;20064;-74
2023/01/18 02:00:06;;;;;;;7.80;3.10;;;-0.70;99.90;;;;;;5023392;28;20097;-73
2023/01/18 02:02:34;;;;;;;9.48;3.35;;;-0.70;99.90;;;;;;5041233;28;20576;-74
2023/01/18 02:05:02;;;;;;;9.40;3.45;;;-0.80;99.90;;;;;;5034244;28;20052;-74
2023/01/18 02:07:27;;;;;;;8.20;3.30;;;-0.80;99.90;;;;;;5041644;28;20048;-74
2023/01/18 02:09:55;;;;;;;7.32;3.20;;;-0.80;99.90;;;;;;5022285;28;20618;-74
2023/01/18 02:12:21;;;;;;;7.25;3.00;;;-0.80;99.90;;;;;;5040277;28;20118;-74
2023/01/18 02:14:47;;;;;;;8.48;3.38;;;-0.80;99.90;;;;;;5040979;28;20033;-74
2023/01/18 02:17:32;;;;;;;7.80;2.65;;;-0.80;99.90;;;;;;5051443;28;20110;-73
2023/01/18 02:20:26;;;;;;;7.55;2.60;;;-0.80;99.90;;;;;;5020725;28;20398;-74
2023/01/18 02:23:19;;;;;;;7.38;2.83;;;-0.80;99.90;;;;;;5037391;28;20033;-74
2023/01/18 02:26:23;;;;;;;6.10;2.63;;;-0.80;99.90;;;;;;5023417;28;20037;-75
2023/01/18 02:29:19;;;;;;;7.40;2.58;;;-0.80;99.90;;;;;;5035107;28;20040;-74
2023/01/18 02:32:19;;;;;;;7.20;2.95;;;-0.80;99.90;;;;;;5053045;28;20049;-74
2023/01/18 02:35:00;;;;;;;7.22;2.83;;;-0.80;99.90;;;;;;4982630;28;20057;-74
2023/01/18 02:37:45;;;;;;;7.63;2.75;;;-0.80;99.90;;;;;;5038443;28;20052;-74
2023/01/18 02:40:52;;;;;;;13.65;3.40;;;-0.80;99.90;;;;;;5023342;28;20048;-74
2023/01/18 02:48:52;;;;;;;10.82;3.83;;;-0.90;99.90;;;;;;5033662;28;20045;-74
2023/01/18 02:51:18;;;;;;;7.70;3.40;;;-0.90;99.90;;;;;;5055699;28;20036;-74
2023/01/18 02:53:46;;;;;;;9.18;3.42;;;-0.90;99.90;;;;;;5032249;28;20063;-74
2023/01/18 02:56:28;;;;;;;8.95;3.55;;;-0.90;99.90;;;;;;5049926;28;20048;-74
2023/01/18 02:58:57;;;;;;;10.25;3.58;;;-0.90;99.90;;;;;;5036875;28;20045;-74
2023/01/18 03:01:40;;;;;;;8.75;3.92;;;-0.90;99.90;;;;;;5033625;28;20517;-75
2023/01/18 03:04:22;;;;;;;9.38;4.13;;;-0.90;99.90;;;;;;5016911;28;20044;-75
2023/01/18 03:06:56;;;;;;;10.45;4.40;;;-0.90;99.90;;;;;;5049297;28;20055;-74
2023/01/18 03:09:25;;;;;;;10.85;4.85;;;-0.90;99.90;;;;;;5037412;28;20106;-74
2023/01/18 03:12:27;;;;;;;14.25;4.88;;;-1.00;99.90;;;;;;5028861;28;20087;-74
2023/01/18 03:15:11;;;;;;;11.77;4.82;;;-1.00;99.90;;;;;;5017180;28;20577;-73
2023/01/18 03:17:47;;;;;;;9.48;4.80;;;-1.00;99.90;;;;;;5030755;28;20045;-73
2023/01/18 03:20:16;;;;;;;14.07;4.82;;;-1.00;99.90;;;;;;5029364;28;20103;-74
2023/01/18 03:25:36;;;;;;;9.50;4.20;;;-1.00;99.90;;;;;;5032330;28;20217;-74
2023/01/18 03:33:52;;;;;;;10.73;4.93;;;-1.10;99.90;;;;;;5032448;28;20061;-74
2023/01/18 03:36:24;;;;;;;7.75;4.13;;;-1.10;99.90;;;;;;5035122;28;20060;-74
2023/01/18 03:38:57;;;;;;;15.65;4.72;;;-1.00;99.90;;;;;;5031920;28;20088;-74
2023/01/18 03:41:28;;;;;;;15.52;5.70;;;-1.10;99.90;;;;;;5015337;28;20053;-74
2023/01/18 03:43:58;;;;;;;10.35;4.57;;;-1.10;99.90;;;;;;5035631;28;20076;-74
2023/01/18 03:46:29;;;;;;;9.38;4.22;;;-1.10;99.90;;;;;;5028462;28;20084;-74
2023/01/18 03:48:56;;;;;;;8.40;4.60;;;-1.10;99.90;;;;;;5031762;28;20731;-74
2023/01/18 03:51:25;;;;;;;13.55;5.03;;;-1.10;99.90;;;;;;5030251;28;20045;-74
2023/01/18 03:54:06;;;;;;;11.15;4.90;;;-1.10;99.90;;;;;;5036127;28;20407;-74
2023/01/18 03:56:36;;;;;;;10.98;5.43;;;-0.70;99.90;;;;;;5016967;28;20045;-74
2023/01/18 03:59:04;;;;;;;11.27;4.95;;;-1.20;99.90;;;;;;5036242;28;20046;-74
2023/01/18 04:01:30;;;;;;;9.55;5.40;;;-1.20;99.90;;;;;;5033555;28;21785;-74
2023/01/18 04:03:56;;;;;;;9.48;5.00;;;-1.20;99.90;;;;;;5034840;28;20056;-74
2023/01/18 04:06:24;;;;;;;12.30;5.05;;;-1.10;99.90;;;;;;5029514;28;20689;-73
2023/01/18 04:08:50;;;;;;;9.15;4.80;;;-0.90;99.90;;;;;;5017795;28;20041;-74
2023/01/18 04:11:16;;;;;;;13.52;5.47;;;-1.20;99.90;;;;;;5044469;28;20052;-74
2023/01/18 04:13:42;;;;;;;10.15;4.85;;;-1.20;99.90;;;;;;5045263;28;20044;-74
2023/01/18 04:16:08;;;;;;;12.18;5.18;;;-1.20;99.90;;;;;;5033488;28;20044;-73
2023/01/18 04:18:34;;;;;;;12.80;5.22;;;-0.90;99.90;;;;;;5039461;28;20045;-73
2023/01/18 04:21:00;;;;;;;10.90;5.05;;;-1.20;99.90;;;;;;5073432;28;20037;-73
2023/01/18 04:23:26;;;;;;;10.88;5.22;;;-0.40;99.90;;;;;;5046735;28;20063;-73
2023/01/18 04:25:52;;;;;;;10.57;5.43;;;-1.20;99.90;;;;;;5038190;28;20226;-74
2023/01/18 04:28:24;;;;;;;11.70;5.47;;;-1.20;99.90;;;;;;5019838;28;20127;-73
2023/01/18 04:30:55;;;;;;;11.30;5.35;;;-1.20;99.90;;;;;;5039386;28;20177;-74
2023/01/18 04:33:22;;;;;;;12.30;5.53;;;-1.20;99.90;;;;;;5013029;28;20048;-74
2023/01/18 04:35:49;;;;;;;11.65;5.57;;;-1.30;99.90;;;;;;5057118;28;20041;-73
2023/01/18 04:38:15;;;;;;;13.13;6.07;;;-1.30;99.90;;;;;;5031152;28;20052;-74
2023/01/18 04:40:41;;;;;;;10.75;5.53;;;-1.30;99.90;;;;;;5027677;28;20051;-74
2023/01/18 04:43:07;;;;;;;11.65;6.50;;;-1.30;99.90;;;;;;5041006;28;20052;-74
2023/01/18 04:45:33;;;;;;;13.23;5.95;;;-1.30;99.90;;;;;;5037938;28;20044;-74
2023/01/18 04:47:59;;;;;;;13.45;6.40;;;-1.30;99.90;;;;;;5036820;28;20051;-74
2023/01/18 04:50:26;;;;;;;12.35;5.60;;;-1.30;99.90;;;;;;5039666;28;20036;-74
2023/01/18 04:52:51;;;;;;;14.68;6.18;;;-0.30;99.90;;;;;;5040649;28;20188;-74
2023/01/18 04:55:17;;;;;;;14.48;5.90;;;-1.30;99.90;;;;;;5042099;28;20389;-74
2023/01/18 04:57:44;;;;;;;13.02;6.68;;;-1.30;99.90;;;;;;5038529;28;20044;-74
2023/01/18 05:00:11;;;;;;;14.15;5.55;;;-1.30;99.90;;;;;;5034254;28;20422;-74
2023/01/18 05:02:37;;;;;;;13.85;7.38;;;-1.40;99.90;;;;;;5042278;28;20186;-74
2023/01/18 05:05:04;;;;;;;14.20;6.63;;;-1.40;99.90;;;;;;5037179;28;20122;-74
2023/01/18 05:07:32;;;;;;;15.88;6.75;;;-1.40;99.90;;;;;;5052934;28;20056;-74
2023/01/18 05:10:01;;;;;;;13.93;6.78;;;-1.40;99.90;;;;;;5059378;28;20051;-74
2023/01/18 05:12:28;;;;;;;13.40;6.13;;;-1.40;99.90;;;;;;5059173;28;20049;-74
2023/01/18 05:14:55;;;;;;;11.63;6.70;;;-1.40;99.90;;;;;;5035581;28;20045;-74
2023/01/18 05:17:26;;;;;;;11.77;6.40;;;-1.40;99.90;;;;;;5044936;28;20036;-74
2023/01/18 05:19:59;;;;;;;12.63;7.23;;;-0.90;99.90;;;;;;5022975;28;20040;-74
2023/01/18 05:22:25;;;;;;;17.30;7.05;;;-1.40;99.90;;;;;;5031689;28;20330;-75
2023/01/18 05:24:52;;;;;;;16.58;6.88;;;-1.40;99.90;;;;;;5016562;28;20521;-75
2023/01/18 05:27:18;;;;;;;12.75;6.65;;;-0.90;99.90;;;;;;5030247;28;20055;-74
2023/01/18 05:29:43;;;;;;;17.02;6.60;;;-1.40;99.90;;;;;;5029183;28;20041;-74
2023/01/18 05:32:10;;;;;;;11.85;6.57;;;-1.40;99.90;;;;;;5024068;28;20425;-74
2023/01/18 05:34:36;;;;;;;13.63;6.68;;;-1.40;99.90;;;;;;5036956;28;20458;-74
2023/01/18 05:37:03;;;;;;;12.65;6.10;;;-1.40;99.90;;;;;;5027151;28;20056;-74
2023/01/18 05:39:29;;;;;;;14.13;6.50;;;-1.40;99.90;;;;;;5058390;28;20052;-74
2023/01/18 05:41:54;;;;;;;16.70;7.28;;;-1.40;99.90;;;;;;5026192;28;20577;-74
2023/01/18 05:44:21;;;;;;;16.85;7.93;;;-1.40;99.90;;;;;;5037950;28;20041;-74
2023/01/18 05:46:47;;;;;;;17.15;8.82;;;-1.20;99.90;;;;;;5018973;28;20056;-75
2023/01/18 05:49:12;;;;;;;16.75;7.50;;;-1.40;99.90;;;;;;5053572;28;20131;-74
2023/01/18 05:51:38;;;;;;;16.50;7.75;;;-1.40;99.90;;;;;;5041180;28;20155;-74
2023/01/18 05:54:04;;;;;;;15.30;8.10;;;-1.30;99.90;;;;;;5026228;28;20036;-73
2023/01/18 05:56:30;;;;;;;16.35;8.27;;;-1.40;99.90;;;;;;5031768;28;20296;-74
2023/01/18 05:58:56;;;;;;;15.75;8.07;;;-1.40;99.90;;;;;;5035716;28;20045;-74
2023/01/18 06:01:22;;;;;;;16.05;7.97;;;-1.30;99.90;;;;;;5037208;28;20090;-74
2023/01/18 06:03:47;;;;;;;18.38;8.50;;;-1.40;99.90;;;;;;5025631;28;20669;-73
2023/01/18 06:06:15;;;;;;;14.80;8.48;;;-1.40;99.90;;;;;;5054584;28;20052;-74
2023/01/18 06:08:41;;;;;;;17.38;8.23;;;-1.40;99.90;;;;;;5037774;28;20456;-74
2023/01/18 06:11:08;;;;;;;20.10;8.40;;;-1.40;99.90;;;;;;5033777;28;20083;-73
2023/01/18 06:13:34;;;;;;;14.95;7.72;;;-1.10;99.90;;;;;;5015306;28;20036;-75
2023/01/18 06:16:01;;;;;;;14.40;7.75;;;-1.40;99.90;;;;;;5047144;28;20051;-74
2023/01/18 06:18:30;;;;;;;16.95;9.02;;;-1.40;99.90;;;;;;5029058;28;20041;-74
2023/01/18 06:20:56;;;;;;;14.80;8.05;;;-1.30;99.90;;;;;;5036960;28;20113;-74
2023/01/18 06:23:23;;;;;;;17.33;7.72;;;-1.40;99.90;;;;;;5030091;28;20073;-74
2023/01/18 06:25:49;;;;;;;18.02;8.63;;;-1.40;99.90;;;;;;5030979;28;20518;-74
2023/01/18 06:28:15;;;;;;;15.90;7.88;;;-1.00;99.90;;;;;;5015464;28;20055;-74
2023/01/18 06:30:46;;;;;;;15.32;7.90;;;-1.50;99.90;;;;;;5035915;28;20114;-74
2023/01/18 06:33:13;;;;;;;16.77;8.60;;;-1.40;99.90;;;;;;5032277;28;20111;-73
2023/01/18 06:35:40;;;;;;;15.23;7.63;;;-1.40;99.90;;;;;;5032548;28;20049;-74
2023/01/18 06:38:06;;;;;;;13.57;7.97;;;-1.40;99.90;;;;;;5014482;28;20049;-74
2023/01/18 06:40:32;;;;;;;18.42;8.45;;;-1.40;99.90;;;;;;5050267;28;20506;-74
2023/01/18 06:42:58;;;;;;;16.55;8.40;;;0.10;99.90;;;;;;5051134;28;20056;-74
2023/01/18 06:45:24;;;;;;;16.77;7.72;;;-1.40;99.90;;;;;;5034420;28;20053;-75
2023/01/18 06:47:51;;;;;;;16.05;8.55;;;-1.40;99.90;;;;;;5033308;28;20040;-74
2023/01/18 06:50:17;;;;;;;14.00;8.07;;;-1.40;99.90;;;;;;5034112;28;20040;-74
2023/01/18 06:52:43;;;;;;;15.68;7.60;;;-1.40;99.90;;;;;;5020297;28;20072;-73
2023/01/18 06:55:13;;;;;;;14.60;6.47;;;-1.40;99.90;;;;;;5047792;28;20124;-74
2023/01/18 06:57:39;;;;;;;12.48;7.45;;;-1.40;99.90;;;;;;5038477;28;20052;-74
2023/01/18 07:00:08;;;;;;;14.60;7.47;;;-1.40;99.90;;;;;;5061021;28;20047;-74
2023/01/18 07:02:34;;;;;;;17.73;8.30;;;-1.40;99.90;;;;;;5053638;28;20137;-74
2023/01/18 07:05:01;;;;;;;16.25;7.47;;;-1.30;99.90;;;;;;5038335;28;20052;-74
2023/01/18 07:07:27;;;;;;;18.25;7.90;;;-1.40;99.90;;;;;;5036999;28;20032;-73
2023/01/18 07:09:53;;;;;;;16.45;8.25;;;-1.40;99.90;;;;;;5020447;28;20051;-73
2023/01/18 07:12:19;;;;;;;18.92;7.97;;;-1.40;99.90;;;;;;5056604;28;20057;-73
2023/01/18 07:14:45;;;;;;;19.73;9.02;;;-1.30;99.90;;;;;;5055732;28;20129;-73
2023/01/18 07:17:11;;;;;;;15.40;8.13;;;-1.40;99.90;;;;;;5022731;28;20170;-73
2023/01/18 07:19:37;;;;;;;19.77;8.13;;;-0.70;99.90;;;;;;5056429;28;20116;-73
2023/01/18 07:22:03;;;;;;;16.58;7.65;;;-1.30;99.90;;;;;;5049428;28;20056;-73
2023/01/18 07:24:28;;;;;;;19.55;8.43;;;-1.30;99.90;;;;;;5016794;28;20045;-74
2023/01/18 07:26:54;;;;;;;14.88;8.02;;;-1.40;99.90;;;;;;5039046;28;20036;-74
2023/01/18 07:29:20;;;;;;;18.42;7.93;;;-1.40;99.90;;;;;;5022034;28;20056;-73
2023/01/18 07:31:46;;;;;;;18.73;8.15;;;-1.30;99.90;;;;;;5058517;28;20052;-74
2023/01/18 07:34:12;;;;;;;15.02;8.10;;;-1.30;99.90;;;;;;5037513;28;20128;-73
2023/01/18 07:36:40;;;;;;;17.67;8.88;;;-1.30;99.90;;;;;;5039541;28;20119;-73
2023/01/18 07:39:07;;;;;;;14.88;8.48;;;-1.30;99.90;;;;;;5015555;28;20553;-74
2023/01/18 07:41:33;;;;;;;23.20;8.65;;;-1.30;99.90;;;;;;5032736;28;20063;-74
2023/01/18 07:43:59;;;;;;;16.15;8.43;;;-1.10;99.90;;;;;;5032088;28;20564;-74
2023/01/18 07:46:28;;;;;;;19.45;8.95;;;-1.30;99.90;;;;;;5053841;28;20483;-73
2023/01/18 07:48:54;;;;;;;14.70;8.23;;;-0.30;99.90;;;;;;5056132;28;20580;-73
2023/01/18 07:51:21;;;;;;;17.42;8.15;;;-1.00;99.90;;;;;;5038108;28;20041;-73
2023/01/18 07:53:47;;;;;;;17.25;8.10;;;-1.30;99.90;;;;;;5020342;28;20076;-74
2023/01/18 07:56:16;;;;;;;13.98;7.00;;;-0.90;99.90;;;;;;5050692;28;20037;-73
2023/01/18 07:58:43;;;;;;;19.35;8.07;;;-1.40;99.90;;;;;;5033056;28;20040;-74
2023/01/18 08:01:15;;;;;;;16.63;8.07;;;-1.20;99.90;;;;;;5039223;28;20528;-74
2023/01/18 08:03:42;;;;;;;14.35;7.68;;;-1.30;99.90;;;;;;5035638;28;20041;-75
2023/01/18 08:06:08;;;;;;;15.20;7.88;;;-1.30;99.90;;;;;;5034841;28;20048;-74
2023/01/18 08:08:35;;;;;;;18.30;7.75;;;-1.30;99.90;;;;;;5018396;28;20051;-74
2023/01/18 08:11:03;;;;;;;14.55;7.57;;;-1.30;99.90;;;;;;5021651;28;20202;-74
2023/01/18 08:13:30;;;;;;;14.18;7.38;;;-1.30;99.90;;;;;;5034296;28;20055;-74
2023/01/18 08:15:59;;;;;;;15.35;7.47;;;-1.30;99.90;;;;;;5038137;28;20185;-74
2023/01/18 08:18:27;;;;;;;15.32;7.47;;;-1.30;99.90;;;;;;5046759;28;20067;-74
2023/01/18 08:20:53;;;;;;;18.17;6.90;;;-0.90;99.90;;;;;;5058232;28;20040;-75
2023/01/18 08:23:19;;;;;;;14.90;7.38;;;-1.20;99.90;;;;;;5034222;28;20410;-74
2023/01/18 08:25:46;;;;;;;16.73;6.82;;;-1.20;99.90;;;;;;5056548;28;20502;-74
2023/01/18 08:28:13;;;;;;;17.23;6.63;;;-1.00;99.90;;;;;;5055734;28;20053;-73
2023/01/18 08:30:42;;;;;;;13.50;6.43;;;-1.10;99.90;;;;;;5024326;28;20517;-74
2023/01/18 08:33:09;;;;;;;21.92;7.70;;;-1.10;99.90;;;;;;5026760;28;20040;-74
2023/01/18 08:35:41;;;;;;;15.95;7.20;;;-1.10;99.90;;;;;;5039836;28;20047;-74
2023/01/18 08:38:06;;;;;;;17.85;7.22;;;-1.10;99.90;;;;;;5033869;28;20048;-74
2023/01/18 08:40:32;;;;;;;16.75;8.52;;;-1.10;99.90;;;;;;5018799;28;20064;-73
2023/01/18 08:43:00;;;;;;;14.35;7.47;;;-1.00;99.90;;;;;;5034840;28;20124;-74
2023/01/18 08:45:26;;;;;;;14.75;6.90;;;-1.00;99.90;;;;;;5048439;28;20068;-75
2023/01/18 08:48:01;;;;;;;15.32;7.10;;;-1.00;99.90;;;;;;5017042;28;20048;-74
2023/01/18 08:50:27;;;;;;;20.20;7.70;;;0.20;99.90;;;;;;5029754;28;20052;-74
2023/01/18 08:52:53;;;;;;;15.23;7.35;;;-0.90;99.90;;;;;;5020286;28;20094;-75
2023/01/18 08:55:20;;;;;;;14.45;6.88;;;-0.90;99.90;;;;;;5049694;28;20053;-74
2023/01/18 08:57:46;;;;;;;14.85;7.30;;;-0.90;99.90;;;;;;5019583;28;20049;-73
2023/01/18 09:00:13;;;;;;;14.98;7.05;;;-0.80;99.90;;;;;;5029784;28;20536;-74
2023/01/18 09:02:39;;;;;;;14.00;7.05;;;-0.80;99.90;;;;;;5035130;28;20395;-74
2023/01/18 09:05:05;;;;;;;14.60;6.60;;;-0.80;99.90;;;;;;5015438;28;20074;-73
2023/01/18 09:07:31;;;;;;;15.35;6.80;;;-0.70;99.90;;;;;;5041692;28;20055;-74
2023/01/18 09:09:56;;;;;;;15.75;6.80;;;-0.30;99.90;;;;;;5037851;28;20131;-74
2023/01/18 09:12:22;;;;;;;20.80;7.13;;;-0.60;99.90;;;;;;5030014;28;20118;-73
2023/01/18 09:14:49;;;;;;;14.20;6.32;;;-0.60;99.90;;;;;;5038460;28;20487;-74
2023/01/18 09:17:18;;;;;;;13.05;6.43;;;0.10;99.90;;;;;;5038500;28;20054;-74
2023/01/18 09:19:44;;;;;;;12.93;6.38;;;-0.50;99.90;;;;;;5024549;28;20060;-74
2023/01/18 09:22:10;;;;;;;16.27;6.68;;;-0.10;99.90;;;;;;5022228;28;20490;-74
2023/01/18 09:24:36;;;;;;;17.02;6.18;;;-0.40;99.90;;;;;;5027397;28;20200;-75
2023/01/18 09:27:03;;;;;;;12.73;6.55;;;-0.40;99.90;;;;;;5042079;28;20708;-74
2023/01/18 09:29:30;;;;;;;13.45;6.20;;;-0.20;99.90;;;;;;5045303;28;20050;-73
2023/01/18 09:31:59;;;;;;;12.32;6.07;;;-0.30;99.90;;;;;;5042624;28;20080;-74
2023/01/18 09:34:25;;;;;;;15.82;6.45;;;-0.20;99.90;;;;;;5019562;28;20128;-74
2023/01/18 09:36:53;;;;;;;13.48;6.28;;;-0.20;99.90;;;;;;5043266;28;20051;-74
2023/01/18 09:39:20;;;;;;;13.07;6.20;;;-0.20;99.90;;;;;;5040485;28;20048;-73
2023/01/18 09:41:58;;;;;;;15.35;6.63;;;-0.10;99.90;;;;;;5024575;28;20055;-74
2023/01/18 09:44:28;;;;;;;15.82;6.32;;;0.00;99.90;;;;;;5050877;28;20096;-74
2023/01/18 09:47:20;;;;;;;16.80;6.47;;;0.00;99.90;;;;;;5036859;28;20041;-74
2023/01/18 09:49:56;;;;;;;13.82;5.88;;;0.10;99.90;;;;;;5055084;28;20094;-75
2023/01/18 09:52:31;;;;;;;12.35;6.30;;;0.20;99.90;;;;;;5039872;28;20487;-74
2023/01/18 09:55:21;;;;;;;13.10;6.40;;;0.20;99.90;;;;;;5035521;28;20041;-75
2023/01/18 09:58:08;;;;;;;14.00;6.60;;;0.30;99.90;;;;;;5041223;28;20049;-75
2023/01/18 10:00:43;;;;;;;17.25;6.57;;;0.30;99.90;;;;;;5036747;28;20044;-75
2023/01/18 10:03:27;;;;;;;13.05;6.63;;;1.30;99.90;;;;;;5027559;28;20049;-75
2023/01/18 10:06:07;;;;;;;10.60;6.20;;;0.40;99.90;;;;;;5036687;28;20678;-74
2023/01/18 10:08:47;;;;;;;16.48;6.75;;;0.50;99.90;;;;;;5017937;28;20740;-73
2023/01/18 10:11:35;;;;;;;15.25;6.40;;;0.50;99.90;;;;;;5023126;28;20814;-74
2023/01/18 10:14:07;;;;;;;12.27;6.15;;;0.60;99.90;;;;;;5031807;28;20049;-74
2023/01/18 10:16:34;;;;;;;14.77;6.50;;;1.10;99.90;;;;;;5030640;28;20127;-74
2023/01/18 10:19:00;;;;;;;13.18;5.95;;;0.70;99.90;;;;;;5021499;28;20052;-73
2023/01/18 10:21:57;;;;;;;12.77;5.53;;;0.70;99.90;;;;;;5026729;28;20609;-73
2023/01/18 10:24:29;;;;;;;15.55;6.05;;;0.80;99.90;;;;;;5056987;28;20156;-74
2023/01/18 10:27:40;;;;;;;14.43;6.38;;;0.80;99.90;;;;;;5038257;28;20037;-74
2023/01/18 10:30:30;;;;;;;10.45;6.10;;;0.80;99.90;;;;;;5026078;28;20105;-73
2023/01/18 10:32:59;;;;;;;12.27;6.07;;;0.90;99.90;;;;;;5034030;28;20033;-73
2023/01/18 10:35:40;;;;;;;14.85;5.75;;;1.30;99.90;;;;;;5039998;28;20077;-74
2023/01/18 10:38:11;;;;;;;14.75;6.22;;;1.00;99.90;;;;;;5029943;28;20045;-74
2023/01/18 10:40:38;;;;;;;13.43;5.80;;;1.10;99.90;;;;;;5019367;28;20127;-74
2023/01/18 10:43:11;;;;;;;19.30;6.13;;;1.20;99.90;;;;;;5039627;28;20048;-74
2023/01/18 10:45:37;;;;;;;15.00;5.70;;;1.10;99.90;;;;;;5024475;28;20044;-75
2023/01/18 10:48:23;;;;;;;10.95;5.55;;;1.20;99.90;;;;;;5036526;28;20102;-75
2023/01/18 10:50:51;;;;;;;13.77;5.88;;;1.30;99.90;;;;;;5039162;28;20527;-74
2023/01/18 10:53:32;;;;;;;10.45;6.07;;;1.30;99.90;;;;;;5036134;28;20032;-73
2023/01/18 10:56:05;;;;;;;14.10;5.82;;;1.40;99.90;;;;;;5033609;28;20048;-73
2023/01/18 10:58:53;;;;;;;12.25;5.13;;;1.40;99.90;;;;;;5020236;28;20052;-74
2023/01/18 11:01:34;;;;;;;12.18;5.13;;;1.40;99.90;;;;;;5034640;28;20044;-74
2023/01/18 11:04:15;;;;;;;12.95;5.63;;;1.50;99.90;;;;;;5053970;28;20720;-74
2023/01/18 11:06:57;;;;;;;12.45;5.90;;;1.50;99.90;;;;;;5054523;28;20096;-73
2023/01/18 11:09:50;;;;;;;12.98;5.95;;;1.60;99.90;;;;;;5039122;28;20776;-73
2023/01/18 11:12:51;;;;;;;12.30;5.00;;;1.60;99.90;;;;;;5042211;28;20060;-73
2023/01/18 11:15:22;;;;;;;12.15;5.32;;;1.70;99.90;;;;;;4988077;28;20060;-73
2023/01/18 11:17:57;;;;;;;13.68;5.47;;;1.70;99.90;;;;;;5037698;28;20484;-73
2023/01/18 11:20:32;;;;;;;11.45;5.50;;;1.80;99.90;;;;;;5057713;28;20044;-74
2023/01/18 11:23:13;;;;;;;11.43;5.43;;;1.90;99.90;;;;;;5023349;28;20056;-74
2023/01/18 11:25:48;;;;;;;11.97;5.00;;;2.20;99.90;;;;;;5019189;28;20053;-73
2023/01/18 11:28:20;;;;;;;14.98;5.93;;;1.90;99.90;;;;;;5034235;28;20182;-73
2023/01/18 11:30:56;;;;;;;12.60;5.82;;;2.00;99.90;;;;;;5050781;28;20120;-74
2023/01/18 11:33:24;;;;;;;12.75;5.07;;;2.00;99.90;;;;;;5035923;28;20610;-73
2023/01/18 11:35:58;;;;;;;8.77;4.72;;;2.50;99.90;;;;;;5057311;28;20083;-74
2023/01/18 11:38:30;;;;;;;10.55;5.13;;;2.10;99.90;;;;;;5023243;28;20053;-74
2023/01/18 11:41:19;;;;;;;16.45;6.00;;;2.20;99.90;;;;;;5026738;28;20556;-74
2023/01/18 11:44:08;;;;;;;10.68;4.63;;;2.20;99.90;;;;;;5033931;28;20457;-72
2023/01/18 11:46:57;;;;;;;14.60;5.10;;;2.20;99.90;;;;;;5035460;28;20059;-73
2023/01/18 11:49:43;;;;;;;11.73;5.05;;;2.30;99.90;;;;;;5050756;28;20044;-72
2023/01/18 11:52:16;;;;;;;11.45;4.80;;;2.20;99.90;;;;;;5050620;28;20062;-73
2023/01/18 11:54:41;;;;;;;12.80;5.07;;;2.30;99.90;;;;;;5034440;28;20045;-74
2023/01/18 11:57:11;;;;;;;9.55;4.50;;;2.30;99.90;;;;;;5030167;28;20045;-74
2023/01/18 11:59:42;;;;;;;10.82;4.57;;;2.40;99.90;;;;;;5018798;28;20320;-73
2023/01/18 12:02:35;;;;;;;12.88;4.78;;;2.40;99.90;;;;;;5018699;28;20037;-73
2023/01/18 12:05:58;;;;;;;11.75;5.03;;;2.50;99.90;;;;;;5046540;28;20047;-73
2023/01/18 12:09:06;;;;;;;10.20;4.95;;;2.50;99.90;;;;;;4954799;28;20046;-73
2023/01/18 12:11:38;;;;;;;12.02;4.68;;;2.50;99.90;;;;;;4911289;28;20055;-72
2023/01/18 12:14:25;;;;;;;14.43;5.38;;;2.60;99.90;;;;;;4997900;28;20056;-73
2023/01/18 12:17:04;;;;;;;10.05;4.88;;;2.70;99.90;;;;;;5034861;28;20164;-74
2023/01/18 12:19:53;;;;;;;13.63;4.70;;;2.80;99.90;;;;;;5016895;28;20071;-73
2023/01/18 12:22:43;;;;;;;10.52;4.90;;;2.60;99.90;;;;;;5035671;28;20070;-73
2023/01/18 12:25:39;;;;;;;9.32;4.53;;;2.60;99.90;;;;;;5052873;28;20710;-73
2023/01/18 12:28:43;;;;;;;10.60;4.22;;;2.60;99.90;;;;;;5046222;28;20110;-74
2023/01/18 12:31:40;;;;;;;13.70;4.18;;;2.70;99.90;;;;;;4999129;28;20058;-73
2023/01/18 12:34:22;;;;;;;11.63;4.53;;;2.70;99.90;;;;;;5035165;28;20051;-74
2023/01/18 12:37:09;;;;;;;13.20;4.60;;;3.20;99.90;;;;;;5026086;28;20552;-73
2023/01/18 12:40:10;;;;;;;12.02;4.30;;;2.80;99.90;;;;;;5052901;28;20563;-73
2023/01/18 12:42:36;;;;;;;14.93;4.32;;;2.90;99.90;;;;;;5019724;28;20131;-72
2023/01/18 12:45:30;;;;;;;13.30;4.70;;;2.90;99.90;;;;;;5034007;28;20470;-72
2023/01/18 12:47:58;;;;;;;7.75;3.65;;;2.90;99.90;;;;;;5049942;28;20091;-72
2023/01/18 12:50:28;;;;;;;8.88;4.22;;;3.00;99.90;;;;;;5048967;28;20127;-72
2023/01/18 12:52:59;;;;;;;10.38;4.15;;;3.30;99.90;;;;;;5054411;28;20097;-72
2023/01/18 12:55:30;;;;;;;11.63;4.10;;;3.10;99.90;;;;;;5034204;28;20064;-72
2023/01/18 12:57:58;;;;;;;8.98;3.78;;;3.10;99.90;;;;;;5050068;28;20048;-73
2023/01/18 13:00:37;;;;;;;10.55;4.05;;;3.40;99.90;;;;;;5045236;28;20481;-72
2023/01/18 13:03:12;;;;;;;9.55;3.78;;;3.10;99.90;;;;;;5037645;28;20134;-72
2023/01/18 13:05:51;;;;;;;10.45;4.05;;;3.10;99.90;;;;;;5025323;28;20052;-72
2023/01/18 13:08:40;;;;;;;11.07;4.15;;;3.10;99.90;;;;;;5051213;28;20682;-73
2023/01/18 13:11:18;;;;;;;9.45;4.10;;;3.10;99.90;;;;;;5030737;28;20636;-72
2023/01/18 13:13:45;;;;;;;10.93;3.83;;;3.10;99.90;;;;;;5057408;28;20065;-72
2023/01/18 13:16:18;;;;;;;11.20;3.28;;;3.50;99.90;;;;;;5020132;28;20410;-72
2023/01/18 13:19:07;;;;;;;7.80;3.20;;;3.10;99.90;;;;;;5031007;28;20052;-72
2023/01/18 13:21:48;;;;;;;11.77;4.43;;;3.10;99.90;;;;;;5018544;28;20095;-73
2023/01/18 13:24:32;;;;;;;9.25;3.92;;;3.10;99.90;;;;;;5041167;28;20491;-72
2023/01/18 13:27:10;;;;;;;8.90;4.25;;;3.20;99.90;;;;;;5020583;28;20408;-72
2023/01/18 13:29:36;;;;;;;9.82;3.55;;;3.20;99.90;;;;;;5040511;28;20531;-72
2023/01/18 13:32:19;;;;;;;11.27;3.40;;;3.80;99.90;;;;;;5038769;28;20436;-72
2023/01/18 13:34:47;;;;;;;11.57;4.05;;;3.20;99.90;;;;;;5031559;28;20488;-72
2023/01/18 13:37:44;;;;;;;11.10;3.70;;;3.10;99.90;;;;;;5036371;28;20124;-72
2023/01/18 13:40:33;;;;;;;11.85;4.15;;;3.20;99.90;;;;;;5054926;28;20110;-71